Time;durP1;ratioP1;P1;durP2;ratioP2;P2;SDS_P1;SDS_P2;PMS_P1;PMS_P2;Temp;Humidity;BMP_temperature;BMP_pressure;BME280_temperature;BME280_humidity;BME280_pressure;Samples;Min_cycle;Max_cycle;Signal;HPM_P1;HPM_P2
2022/06/23 03:33:47;;;;;;;;;;;;;;;10.58;92.06;99180.88;6196279;22;19929;-86
2022/06/23 03:36:12;;;;;;;;;;;;;;;10.64;92.27;99183.22;6307975;22;20241;-86
2022/06/23 03:41:36;;;;;;;;;;;;;;;10.69;92.21;99181.19;6307686;22;19918;-87
2022/06/23 03:44:08;;;;;;;;;;;;;;;10.62;92.27;99182.41;6307370;22;19926;-86
2022/06/23 03:46:36;;;;;;;;;;;;;;;10.68;92.20;99191.84;6307687;22;19994;-86
2022/06/23 03:49:10;;;;;;;;;;;;;;;10.64;92.13;99187.63;6306053;22;19915;-87
2022/06/23 03:51:37;;;;;;;;;;;;;;;10.59;92.23;99185.22;6307571;22;19933;-87
2022/06/23 03:54:29;;;;;;;;;;;;;;;10.54;92.19;99180.16;6307543;22;19911;-86
2022/06/23 03:57:05;;;;;;;;;;;;;;;10.57;92.21;99191.56;6301063;22;19915;-88
2022/06/23 03:59:39;;;;;;;;;;;;;;;10.59;91.90;99193.19;6280041;22;19964;-87
2022/06/23 04:02:24;;;;;;;;;;;;;;;10.70;92.10;99192.63;6307339;22;19922;-88
2022/06/23 04:04:53;;;;;;;;;;;;;;;10.55;91.89;99191.63;6305172;22;20052;-87
2022/06/23 04:07:44;;;;;;;;;;;;;;;10.62;92.13;99194.81;6279873;22;19911;-87
2022/06/23 04:10:15;;;;;;;;;;;;;;;10.59;92.07;99193.19;6259505;22;20212;-88
2022/06/23 04:12:45;;;;;;;;;;;;;;;10.65;92.27;99187.56;6307297;22;19946;-88
2022/06/23 04:15:17;;;;;;;;;;;;;;;10.77;92.74;99185.19;6280151;22;19993;-88
2022/06/23 04:17:47;;;;;;;;;;;;;;;10.73;93.05;99198.59;6278634;22;20333;-88
2022/06/23 04:20:18;;;;;;;;;;;;;;;10.62;93.16;99198.31;6254357;22;19911;-88
2022/06/23 04:22:58;;;;;;;;;;;;;;;10.62;93.18;99198.31;6307597;22;20319;-88
2022/06/23 04:25:31;;;;;;;;;;;;;;;10.64;93.48;99195.59;6307151;22;20242;-88
2022/06/23 04:27:59;;;;;;;;;;;;;;;10.59;93.59;99198.47;6306969;22;19918;-90
2022/06/23 04:30:51;;;;;;;;;;;;;;;10.66;93.92;99199.03;6280099;22;19915;-89
2022/06/23 04:33:21;;;;;;;;;;;;;;;10.62;93.53;99200.97;6299097;22;20250;-90
2022/06/23 04:35:48;;;;;;;;;;;;;;;10.61;93.59;99209.00;6333476;22;19930;-89
2022/06/23 04:38:13;;;;;;;;;;;;;;;10.51;93.35;99211.28;6310391;22;19911;-89
2022/06/23 07:41:38;;;;;;;;;;;;;;;12.47;100.00;99235.81;6323573;22;19926;-87
2022/06/23 07:44:06;;;;;;;;;;;;;;;12.63;100.00;99234.91;6311629;22;19922;-88
2022/06/23 07:46:34;;;;;;;;;;;;;;;12.37;100.00;99228.50;6338498;22;19928;-88
2022/06/23 07:49:00;;;;;;;;;;;;;;;12.17;100.00;99235.81;6339139;22;20232;-87
2022/06/23 07:51:25;;;;;;;;;;;;;;;12.42;100.00;99232.59;6339021;22;19985;-88
2022/06/23 07:53:51;;;;;;;;;;;;;;;12.25;100.00;99224.75;6337298;22;19914;-88
2022/06/23 07:56:19;;;;;;;;;;;;;;;12.27;100.00;99218.41;6311079;22;20345;-88
2022/06/23 07:58:46;;;;;;;;;;;;;;;12.60;100.00;99212.03;6338801;22;19915;-88
2022/06/23 08:01:17;;;;;;;;;;;;;;;12.30;100.00;99215.59;6339110;22;19995;-88
2022/06/23 08:03:53;;;;;;;;;;;;;;;12.34;100.00;99218.91;6338590;22;19953;-87
2022/06/23 08:06:21;;;;;;;;;;;;;;;12.63;100.00;99211.84;6310866;22;19921;-87
2022/06/23 08:08:47;;;;;;;;;;;;;;;12.15;100.00;99219.97;6336925;22;19918;-88
2022/06/23 08:14:04;;;;;;;;;;;;;;;12.64;100.00;99218.03;6338590;22;20386;-87
2022/06/23 08:19:29;;;;;;;;;;;;;;;12.66;100.00;99213.47;6338577;22;19955;-88
2022/06/23 08:22:11;;;;;;;;;;;;;;;12.46;100.00;99209.34;6338311;22;19953;-88
2022/06/23 08:24:38;;;;;;;;;;;;;;;12.46;100.00;99206.69;6308944;22;19960;-87
2022/06/23 08:27:07;;;;;;;;;;;;;;;12.72;100.00;99218.41;6311023;22;20279;-88
2022/06/23 08:29:35;;;;;;;;;;;;;;;12.28;100.00;99216.59;6338438;22;19941;-88
2022/06/23 08:32:01;;;;;;;;;;;;;;;12.56;100.00;99214.97;6336998;22;19921;-86
2022/06/23 08:34:28;;;;;;;;;;;;;;;12.83;100.00;99215.13;6309795;22;20238;-88
2022/06/23 08:36:56;;;;;;;;;;;;;;;12.32;100.00;99210.19;6338337;22;19914;-88
2022/06/23 08:39:24;;;;;;;;;;;;;;;12.67;100.00;99210.72;6336684;22;19918;-88
2022/06/23 08:41:54;;;;;;;;;;;;;;;12.89;100.00;99204.94;6337752;22;19968;-87
2022/06/23 08:44:26;;;;;;;;;;;;;;;12.50;100.00;99197.59;6338058;22;19915;-88
2022/06/23 08:47:04;;;;;;;;;;;;;;;12.87;100.00;99198.84;6338211;22;19933;-88
2022/06/23 08:50:01;;;;;;;;;;;;;;;12.71;100.00;99206.91;6310915;22;19918;-88
2022/06/23 08:52:27;;;;;;;;;;;;;;;12.66;100.00;99202.84;6269056;22;20288;-89
2022/06/23 08:54:58;;;;;;;;;;;;;;;12.95;100.00;99203.69;6309262;22;19914;-88
2022/06/23 08:57:27;;;;;;;;;;;;;;;12.49;100.00;99202.06;6310430;22;20356;-88
2022/06/23 08:59:53;;;;;;;;;;;;;;;12.79;100.00;99195.81;6338289;22;19914;-88
2022/06/23 09:02:22;;;;;;;;;;;;;;;13.06;100.00;99203.03;6337959;22;19994;-88
2022/06/23 09:05:03;;;;;;;;;;;;;;;12.60;100.00;99206.72;6338498;22;20277;-88
2022/06/23 09:07:50;;;;;;;;;;;;;;;12.93;100.00;99200.28;6338073;22;20225;-89
2022/06/23 09:10:21;;;;;;;;;;;;;;;12.82;100.00;99197.44;6336324;22;19936;-88
2022/06/23 09:13:02;;;;;;;;;;;;;;;12.78;100.00;99199.44;6338037;22;20612;-88
2022/06/23 09:15:50;;;;;;;;;;;;;;;13.04;100.00;99186.34;6307071;22;19915;-88
2022/06/23 09:18:27;;;;;;;;;;;;;;;12.64;100.00;99192.31;6337991;22;19914;-88
2022/06/23 09:21:01;;;;;;;;;;;;;;;12.98;100.00;99187.56;6338321;22;19977;-88
2022/06/23 09:23:42;;;;;;;;;;;;;;;13.20;100.00;99180.91;6336966;22;20238;-88
2022/06/23 09:26:23;;;;;;;;;;;;;;;12.77;100.00;99179.13;6338002;22;19965;-88
2022/06/23 09:28:48;;;;;;;;;;;;;;;13.10;100.00;99172.66;6337905;22;19937;-88
2022/06/23 09:31:16;;;;;;;;;;;;;;;12.79;100.00;99182.53;6337994;22;20317;-88
2022/06/23 09:33:53;;;;;;;;;;;;;;;12.87;100.00;99174.91;6337788;22;20006;-86
2022/06/23 09:36:29;;;;;;;;;;;;;;;13.11;100.00;99174.34;6338007;22;20321;-87
2022/06/23 09:38:54;;;;;;;;;;;;;;;12.76;100.00;99176.53;6336187;22;19919;-88
2022/06/23 09:41:31;;;;;;;;;;;;;;;12.97;100.00;99163.72;6337939;22;19992;-88
2022/06/23 09:44:15;;;;;;;;;;;;;;;13.20;100.00;99168.44;6310355;22;19910;-88
2022/06/23 09:46:43;;;;;;;;;;;;;;;12.88;100.00;99163.34;6337590;22;19925;-88
2022/06/23 09:49:27;;;;;;;;;;;;;;;13.15;100.00;99159.91;6338005;22;19911;-88
2022/06/23 09:52:04;;;;;;;;;;;;;;;12.99;100.00;99164.50;6337732;22;19914;-90
2022/06/23 09:54:48;;;;;;;;;;;;;;;13.08;100.00;99155.91;6308821;22;19945;-88
2022/06/23 09:57:35;;;;;;;;;;;;;;;13.31;100.00;99157.13;6337685;22;19914;-88
2022/06/23 10:00:03;;;;;;;;;;;;;;;12.93;100.00;99151.59;6337694;22;19918;-87
2022/06/23 10:02:35;;;;;;;;;;;;;;;13.23;100.00;99154.94;6337848;22;19979;-88
2022/06/23 10:05:03;;;;;;;;;;;;;;;13.39;100.00;99160.19;6337513;22;20001;-88
2022/06/23 10:09:58;;;;;;;;;;;;;;;13.30;100.00;99155.41;6172928;22;20351;-86
2022/06/23 10:12:41;;;;;;;;;;;;;;;13.49;100.00;99159.59;6283959;22;19912;-87
2022/06/23 10:15:23;;;;;;;;;;;;;;;13.21;100.00;99159.53;6284108;22;19995;-87
2022/06/23 10:17:49;;;;;;;;;;;;;;;13.40;100.00;99169.00;6180183;22;19957;-87
2022/06/23 10:20:26;;;;;;;;;;;;;;;13.09;100.00;99162.97;6284236;22;19912;-86
2022/06/23 10:23:00;;;;;;;;;;;;;;;13.29;100.00;99158.16;6283840;22;19943;-86
2022/06/23 10:25:28;;;;;;;;;;;;;;;13.52;100.00;99151.41;6178504;23;19917;-86
2022/06/23 10:28:03;;;;;;;;;;;;;;;13.04;100.00;99159.75;6179698;23;19959;-86
2022/06/23 10:30:39;;;;;;;;;;;;;;;13.35;100.00;99148.00;6283839;22;19916;-86
2022/06/23 10:33:04;;;;;;;;;;;;;;;13.48;100.00;99145.41;6179813;22;19926;-86
2022/06/23 10:35:59;;;;;;;;;;;;;;;13.18;100.00;99146.41;6179711;23;19916;-86
2022/06/23 10:38:25;;;;;;;;;;;;;;;13.51;100.00;99136.38;6072362;23;20372;-86
2022/06/23 10:41:09;;;;;;;;;;;;;;;13.32;100.00;99139.34;6179567;22;19920;-87
2022/06/23 10:43:57;;;;;;;;;;;;;;;13.32;100.00;99137.53;6179737;23;19913;-86
2022/06/23 10:46:31;;;;;;;;;;;;;;;13.55;100.00;99122.78;6179541;23;19912;-87
2022/06/23 10:48:56;;;;;;;;;;;;;;;13.19;100.00;99123.31;6179423;23;19991;-89
2022/06/23 10:51:22;;;;;;;;;;;;;;;13.53;100.00;99122.03;6179572;23;19943;-89
2022/06/23 10:59:31;;;;;;;;;;;;;;;14.35;100.00;99112.06;6174149;22;19925;-91
2022/06/23 11:02:03;;;;;;;;;;;;;;;13.79;100.00;99106.97;6285435;22;19912;-90
2022/06/23 11:04:51;;;;;;;;;;;;;;;14.04;100.00;99104.47;6285517;22;19923;-90
2022/06/23 11:08:03;;;;;;;;;;;;;;;14.17;100.00;99100.88;6285362;22;20331;-90
2022/06/23 11:10:57;;;;;;;;;;;;;;;13.73;100.00;99098.56;6099737;23;20364;-89
2022/06/23 11:13:32;;;;;;;;;;;;;;;13.92;100.00;99098.19;6075874;23;19929;-90
2022/06/23 11:16:15;;;;;;;;;;;;;;;13.45;100.00;99097.75;6149537;22;19932;-90
2022/06/23 11:21:55;;;;;;;;;;;;;;;13.96;100.00;99089.88;6181366;22;19916;-90
2022/06/23 11:24:29;;;;;;;;;;;;;;;13.61;100.00;99090.44;6283063;22;19952;-90
2022/06/23 11:27:09;;;;;;;;;;;;;;;13.88;100.00;99083.34;6285177;22;19978;-90
2022/06/23 11:32:23;;;;;;;;;;;;;;;13.76;100.00;99075.22;6179810;22;19932;-90
2022/06/23 11:34:58;;;;;;;;;;;;;;;13.90;100.00;99076.97;6285211;22;19965;-90
2022/06/23 11:37:44;;;;;;;;;;;;;;;13.56;100.00;99071.25;6285425;22;19916;-90
2022/06/23 11:40:47;;;;;;;;;;;;;;;13.79;100.00;99067.03;6283375;22;19916;-90
2022/06/23 11:43:16;;;;;;;;;;;;;;;13.68;100.00;99066.06;6242612;23;19980;-89
2022/06/23 11:45:52;;;;;;;;;;;;;;;13.71;100.00;99064.06;6243011;23;20344;-89
2022/06/23 11:48:43;;;;;;;;;;;;;;;13.95;100.00;99048.22;6217578;23;19994;-89
2022/06/23 11:51:32;;;;;;;;;;;;;;;13.57;100.00;99050.81;6217261;23;19997;-89
2022/06/23 11:54:06;;;;;;;;;;;;;;;13.85;100.00;99052.47;6211696;23;19915;-89
2022/06/23 11:56:31;;;;;;;;;;;;;;;13.95;100.00;99050.03;6243127;23;20245;-88
2022/06/23 11:59:18;;;;;;;;;;;;;;;13.57;100.00;99045.50;6242844;23;19938;-88
2022/06/23 12:01:44;;;;;;;;;;;;;;;13.85;100.00;99046.28;6217300;23;19911;-89
2022/06/23 12:04:09;;;;;;;;;;;;;;;13.89;100.00;99045.13;6217141;23;19998;-90
2022/06/23 12:06:42;;;;;;;;;;;;;;;13.66;100.00;99038.69;6217173;23;19916;-89
2022/06/23 12:09:26;;;;;;;;;;;;;;;13.87;100.00;99036.41;6240484;23;19942;-89
2022/06/23 12:11:52;;;;;;;;;;;;;;;13.59;100.00;99035.59;6216890;23;19956;-89
2022/06/23 12:14:18;;;;;;;;;;;;;;;13.66;100.00;99028.91;6244045;22;19997;-89
2022/06/23 12:16:59;;;;;;;;;;;;;;;13.86;100.00;99019.53;6284921;22;19916;-89
2022/06/23 12:19:30;;;;;;;;;;;;;;;13.49;100.00;99027.38;6284789;22;19968;-89
2022/06/23 12:22:27;;;;;;;;;;;;;;;13.71;100.00;99021.47;6180793;23;19912;-89
2022/06/23 12:25:01;;;;;;;;;;;;;;;13.92;100.00;99011.13;6231500;22;19916;-89
2022/06/23 12:27:36;;;;;;;;;;;;;;;13.60;100.00;99011.53;6180562;23;19912;-88
2022/06/23 12:30:05;;;;;;;;;;;;;;;13.89;100.00;99005.19;6284121;22;19916;-88
2022/06/23 12:32:30;;;;;;;;;;;;;;;13.72;100.00;99011.66;6284550;22;20277;-88
2022/06/23 12:35:05;;;;;;;;;;;;;;;13.66;100.00;98996.09;6284534;22;19912;-88
2022/06/23 12:37:44;;;;;;;;;;;;;;;13.88;100.00;98999.00;6180829;23;19958;-88
2022/06/23 12:40:19;;;;;;;;;;;;;;;13.55;100.00;98997.69;6282887;22;20236;-88
2022/06/23 12:42:47;;;;;;;;;;;;;;;13.77;100.00;99004.22;6180957;23;19927;-88
2022/06/23 12:45:21;;;;;;;;;;;;;;;13.98;100.00;98994.75;6283943;22;19958;-88
2022/06/23 12:48:05;;;;;;;;;;;;;;;13.63;100.00;98990.03;6180304;23;19947;-88
2022/06/23 12:50:49;;;;;;;;;;;;;;;13.88;100.00;98984.81;6284547;22;19912;-88
2022/06/23 12:53:30;;;;;;;;;;;;;;;13.96;100.00;98987.81;6180577;22;19947;-89
2022/06/23 12:56:14;;;;;;;;;;;;;;;13.70;100.00;98981.63;6283993;22;20332;-88
2022/06/23 12:58:47;;;;;;;;;;;;;;;13.94;100.00;98979.06;6284536;22;19913;-88
2022/06/23 13:01:38;;;;;;;;;;;;;;;13.71;100.00;98973.53;6284498;22;19960;-89
2022/06/23 13:04:06;;;;;;;;;;;;;;;13.83;100.00;98970.97;6284352;22;20324;-88
2022/06/23 13:06:39;;;;;;;;;;;;;;;13.94;100.00;98968.44;6180259;23;19913;-88
2022/06/23 13:09:21;;;;;;;;;;;;;;;13.56;100.00;98978.13;6178751;23;20328;-88
2022/06/23 13:11:49;;;;;;;;;;;;;;;13.85;100.00;98974.38;6180227;23;19916;-89
2022/06/23 13:14:18;;;;;;;;;;;;;;;13.95;100.00;98965.66;6180280;23;20332;-88
2022/06/23 13:16:50;;;;;;;;;;;;;;;13.60;100.00;98960.97;6284406;22;19913;-89
2022/06/23 13:19:27;;;;;;;;;;;;;;;13.88;100.00;98961.72;6283882;22;19916;-87
2022/06/23 13:22:01;;;;;;;;;;;;;;;14.01;100.00;98952.88;6283652;22;19940;-90
2022/06/23 13:24:39;;;;;;;;;;;;;;;13.71;100.00;98957.56;6178386;23;19917;-88
2022/06/23 13:27:14;;;;;;;;;;;;;;;13.91;100.00;98961.53;6284007;22;19916;-89
2022/06/23 13:29:48;;;;;;;;;;;;;;;13.89;100.00;98954.59;6284139;22;20224;-88
2022/06/23 13:32:35;;;;;;;;;;;;;;;13.71;100.00;98954.06;6283781;22;19916;-88
2022/06/23 13:35:11;;;;;;;;;;;;;;;13.97;100.00;98944.25;6180060;23;19912;-88
2022/06/23 13:38:09;;;;;;;;;;;;;;;13.64;100.00;98948.28;6284377;22;19916;-88
2022/06/23 13:40:52;;;;;;;;;;;;;;;13.83;100.00;98934.56;6112887;23;20248;-88
2022/06/23 13:43:36;;;;;;;;;;;;;;;14.10;100.00;98933.56;6283762;22;19920;-88
2022/06/23 13:46:14;;;;;;;;;;;;;;;13.79;100.00;98933.09;6283479;22;19913;-88
2022/06/23 13:48:48;;;;;;;;;;;;;;;13.99;100.00;98927.22;6180373;23;20335;-88
2022/06/23 13:51:25;;;;;;;;;;;;;;;14.06;100.00;98934.78;6284077;22;19912;-88
2022/06/23 13:53:58;;;;;;;;;;;;;;;13.83;100.00;98923.06;6178532;23;19916;-88
2022/06/23 13:56:28;;;;;;;;;;;;;;;14.04;100.00;98921.56;6283863;22;19916;-88
2022/06/23 13:59:02;;;;;;;;;;;;;;;13.84;100.00;98922.94;6179885;23;19920;-88
2022/06/23 14:01:30;;;;;;;;;;;;;;;13.85;100.00;98914.03;6180030;23;19940;-88
2022/06/23 14:04:02;;;;;;;;;;;;;;;14.07;100.00;98908.03;6180139;23;19912;-88
2022/06/23 14:06:28;;;;;;;;;;;;;;;13.79;100.00;98903.78;6179945;23;20470;-88
2022/06/23 14:08:53;;;;;;;;;;;;;;;13.82;100.00;98908.91;6282386;22;19944;-88
2022/06/23 14:11:44;;;;;;;;;;;;;;;14.02;100.00;98903.97;6179718;23;19987;-88
2022/06/23 14:14:10;;;;;;;;;;;;;;;13.62;100.00;98900.50;6174075;22;20323;-88
2022/06/23 14:16:56;;;;;;;;;;;;;;;13.92;100.00;98906.44;6283697;22;19923;-89
2022/06/23 14:19:24;;;;;;;;;;;;;;;14.12;100.00;98907.66;6283567;22;20243;-88
2022/06/23 14:22:11;;;;;;;;;;;;;;;13.70;99.95;98901.78;6179666;23;19916;-88
2022/06/23 14:24:40;;;;;;;;;;;;;;;13.96;100.00;98899.91;6178606;23;19920;-88
2022/06/23 14:27:12;;;;;;;;;;;;;;;14.10;100.00;98893.63;6283426;22;19912;-88
2022/06/23 14:29:45;;;;;;;;;;;;;;;13.74;100.00;98888.13;6179874;23;19916;-89
2022/06/23 14:32:16;;;;;;;;;;;;;;;13.98;100.00;98890.03;6304060;22;19938;-88
2022/06/23 14:34:47;;;;;;;;;;;;;;;14.11;100.00;98882.00;6307346;22;19958;-88
2022/06/23 14:37:20;;;;;;;;;;;;;;;13.84;99.77;98876.84;6308592;22;19976;-88
2022/06/23 14:39:48;;;;;;;;;;;;;;;14.07;100.00;98875.19;6306623;22;20246;-88
2022/06/23 14:42:32;;;;;;;;;;;;;;;14.01;100.00;98879.16;6308165;22;19918;-88
2022/06/23 14:45:16;;;;;;;;;;;;;;;13.82;100.00;98866.31;6306329;22;19914;-89
2022/06/23 14:47:56;;;;;;;;;;;;;;;14.10;100.00;98866.97;6308041;22;19941;-88
2022/06/23 14:50:27;;;;;;;;;;;;;;;13.79;99.33;98861.19;6308041;22;19942;-88
2022/06/23 14:53:00;;;;;;;;;;;;;;;13.91;100.00;98860.34;6308443;22;19930;-89
2022/06/23 14:55:45;;;;;;;;;;;;;;;14.08;100.00;98863.59;6306790;22;19922;-88
2022/06/23 14:58:20;;;;;;;;;;;;;;;13.76;99.51;98861.41;6306337;22;19952;-88
2022/06/23 15:01:00;;;;;;;;;;;;;;;13.97;100.00;98862.53;6306729;22;19937;-88
2022/06/23 15:03:44;;;;;;;;;;;;;;;14.16;100.00;98866.53;6306507;22;19917;-89
2022/06/23 15:06:10;;;;;;;;;;;;;;;13.85;99.44;98857.22;6306087;22;19911;-88
2022/06/23 15:08:53;;;;;;;;;;;;;;;14.11;100.00;98847.38;6306831;22;19937;-88
2022/06/23 15:11:21;;;;;;;;;;;;;;;14.01;99.46;98841.00;6307778;22;20357;-88
2022/06/23 15:13:57;;;;;;;;;;;;;;;13.97;99.84;98835.91;6307760;22;19958;-88
2022/06/23 15:16:26;;;;;;;;;;;;;;;14.09;100.00;98836.84;6307190;22;19917;-86
2022/06/23 15:18:57;;;;;;;;;;;;;;;13.76;98.87;98830.31;6307825;22;19911;-88
2022/06/23 15:24:28;;;;;;;;;;;;;;;14.13;100.00;98824.16;6306384;22;19998;-88
2022/06/23 15:26:58;;;;;;;;;;;;;;;13.79;98.98;98826.59;6307913;22;19932;-89
2022/06/23 15:29:31;;;;;;;;;;;;;;;14.02;100.00;98821.41;6307595;22;19922;-89
2022/06/23 15:32:05;;;;;;;;;;;;;;;14.17;100.00;98826.47;6196160;22;19920;-88
2022/06/23 15:34:49;;;;;;;;;;;;;;;13.83;98.87;98819.22;6180943;23;19912;-88
2022/06/23 15:37:36;;;;;;;;;;;;;;;14.06;100.00;98815.75;6180989;23;19954;-89
2022/06/23 15:40:19;;;;;;;;;;;;;;;13.95;99.02;98816.53;6283465;22;20255;-92
2022/06/23 15:43:15;;;;;;;;;;;;;;;;;;;;;
2022/06/23 15:46:08;;;;;;;;;;;;;;;14.17;100.00;98812.31;6140705;23;20371;-92
2022/06/23 15:48:38;;;;;;;;;;;;;;;13.88;98.11;98812.63;6285271;22;19917;-90
2022/06/23 15:51:08;;;;;;;;;;;;;;;14.08;99.26;98812.97;6180815;23;19917;-88
2022/06/23 15:53:52;;;;;;;;;;;;;;;14.24;99.44;98810.03;6283016;22;19916;-88
2022/06/23 15:56:28;;;;;;;;;;;;;;;13.82;97.94;98807.72;6180914;22;20400;-89
2022/06/23 15:58:59;;;;;;;;;;;;;;;14.12;99.41;98806.44;6180807;23;19913;-88
2022/06/23 16:01:27;;;;;;;;;;;;;;;14.25;99.67;98796.63;6180735;23;19948;-89
2022/06/23 16:03:57;;;;;;;;;;;;;;;13.95;98.00;98802.38;6180678;22;19913;-89
2022/06/23 16:06:25;;;;;;;;;;;;;;;14.19;99.09;98797.06;6180589;23;19916;-91
2022/06/23 16:09:00;;;;;;;;;;;;;;;14.24;99.12;98800.22;6179628;23;19951;-89
2022/06/23 16:11:32;;;;;;;;;;;;;;;13.94;98.38;98792.66;6284277;22;19931;-88
2022/06/23 16:14:03;;;;;;;;;;;;;;;14.17;99.52;98783.00;6284644;22;19951;-88
2022/06/23 16:16:33;;;;;;;;;;;;;;;14.20;98.92;98787.25;6180532;23;19915;-89
2022/06/23 16:19:01;;;;;;;;;;;;;;;13.90;98.31;98786.72;6180986;22;20324;-89
2022/06/23 16:21:30;;;;;;;;;;;;;;;14.15;99.57;98782.25;6180687;23;19932;-90
2022/06/23 16:24:09;;;;;;;;;;;;;;;14.29;99.25;98781.25;6179782;23;19912;-89
2022/06/23 16:26:56;;;;;;;;;;;;;;;14.01;98.70;98771.75;6180642;23;20270;-89
2022/06/23 16:29:27;;;;;;;;;;;;;;;14.19;99.45;98777.56;6284874;22;19991;-89
2022/06/23 16:31:57;;;;;;;;;;;;;;;14.08;97.77;98783.69;6180564;23;19920;-89
2022/06/23 16:34:23;;;;;;;;;;;;;;;14.11;98.71;98780.81;6284858;22;20003;-89
2022/06/23 16:36:55;;;;;;;;;;;;;;;14.23;99.50;98768.38;6285054;22;19944;-90
2022/06/23 16:39:26;;;;;;;;;;;;;;;13.96;97.33;98772.97;6282998;22;19943;-89
2022/06/23 16:41:51;;;;;;;;;;;;;;;14.17;98.89;98777.69;6181013;23;19912;-89
2022/06/23 16:44:43;;;;;;;;;;;;;;;15.97;96.50;98757.63;6284348;22;20240;-88
2022/06/23 16:47:13;;;;;;;;;;;;;;;14.47;95.94;98774.56;6174736;22;20320;-89
2022/06/23 16:49:41;;;;;;;;;;;;;;;14.41;98.16;98763.47;6284369;22;19952;-89
2022/06/23 16:52:30;;;;;;;;;;;;;;;14.48;98.81;98760.25;6180336;23;19912;-89
2022/06/23 16:55:02;;;;;;;;;;;;;;;14.06;96.71;98758.97;6179152;23;19912;-88
2022/06/23 16:57:38;;;;;;;;;;;;;;;14.19;98.23;98754.44;6284008;22;19916;-88
2022/06/23 17:00:04;;;;;;;;;;;;;;;14.34;98.24;98758.63;6283734;22;19924;-88
2022/06/23 17:02:37;;;;;;;;;;;;;;;13.97;96.83;98756.00;6180401;22;19912;-89
2022/06/23 17:05:11;;;;;;;;;;;;;;;14.17;98.39;98740.41;6284273;22;20002;-88
2022/06/23 17:07:43;;;;;;;;;;;;;;;14.32;98.02;98733.91;6180511;22;19939;-88
2022/06/23 17:10:23;;;;;;;;;;;;;;;13.85;96.66;98740.06;6280293;22;19966;-88
2022/06/23 17:12:54;;;;;;;;;;;;;;;14.11;98.13;98731.03;6180350;23;19965;-88
2022/06/23 17:15:26;;;;;;;;;;;;;;;14.20;97.75;98734.84;6178991;22;19927;-89
2022/06/23 17:18:03;;;;;;;;;;;;;;;13.93;96.97;98719.94;6284735;22;19912;-88
2022/06/23 17:20:30;;;;;;;;;;;;;;;14.24;98.15;98730.13;6180171;23;19908;-89
2022/06/23 17:22:58;;;;;;;;;;;;;;;14.12;96.28;98721.22;6283933;22;19999;-89
2022/06/23 17:25:28;;;;;;;;;;;;;;;14.05;96.68;98720.00;6282242;22;19943;-88
2022/06/23 17:28:05;;;;;;;;;;;;;;;14.16;97.55;98725.34;6284017;22;19916;-89
2022/06/23 17:30:46;;;;;;;;;;;;;;;13.88;95.25;98724.75;6283961;22;20275;-89
2022/06/23 17:33:24;;;;;;;;;;;;;;;13.94;97.25;98729.59;6284135;22;19912;-88
2022/06/23 17:35:52;;;;;;;;;;;;;;;14.16;97.65;98733.34;6284153;22;19955;-89
2022/06/23 17:44:18;;;;;;;;;;;;;;;14.20;97.84;98744.63;6179985;23;20294;-88
2022/06/23 17:46:57;;;;;;;;;;;;;;;13.77;96.66;98738.84;6180368;23;20053;-88
2022/06/23 17:49:25;;;;;;;;;;;;;;;13.99;97.76;98745.25;6180701;22;19992;-88
2022/06/23 17:55:12;;;;;;;;;;;;;;;13.89;97.02;98742.41;6178971;22;19920;-87
2022/06/23 17:57:38;;;;;;;;;;;;;;;14.13;97.43;98738.91;6272461;22;19966;-86
2022/06/23 18:00:29;;;;;;;;;;;;;;;13.77;95.05;98738.00;6284452;22;20379;-86
2022/06/23 18:02:56;;;;;;;;;;;;;;;13.88;97.51;98746.06;6283723;22;20344;-86
2022/06/23 18:05:26;;;;;;;;;;;;;;;15.09;95.91;98751.22;6283833;22;20275;-86
2022/06/23 18:07:55;;;;;;;;;;;;;;;14.13;95.54;98760.22;6180026;23;19912;-85
2022/06/23 18:10:50;;;;;;;;;;;;;;;14.14;98.35;98751.28;6179661;22;20312;-84
2022/06/23 18:13:15;;;;;;;;;;;;;;;14.35;98.84;98762.97;6168172;23;19995;-86
2022/06/23 18:15:40;;;;;;;;;;;;;;;13.85;97.75;98756.06;6285091;22;20337;-85
2022/06/23 18:18:10;;;;;;;;;;;;;;;14.08;99.25;98754.38;6181068;23;20567;-89
2022/06/23 18:20:40;;;;;;;;;;;;;;;14.27;99.06;98752.06;6285829;22;19995;-86
2022/06/23 18:23:19;;;;;;;;;;;;;;;13.89;98.10;98757.53;6180665;23;20380;-85
2022/06/23 18:25:44;;;;;;;;;;;;;;;14.10;99.41;98753.28;6179674;23;20308;-85
2022/06/23 18:28:28;;;;;;;;;;;;;;;14.01;97.92;98761.09;6181093;23;19916;-86
2022/06/23 18:31:02;;;;;;;;;;;;;;;13.94;99.09;98753.56;6181162;23;19981;-88
2022/06/23 18:33:27;;;;;;;;;;;;;;;14.13;99.50;98755.72;6286013;22;19931;-85
2022/06/23 18:35:58;;;;;;;;;;;;;;;13.83;97.06;98755.31;6181185;23;19920;-84
2022/06/23 18:38:23;;;;;;;;;;;;;;;13.95;98.97;98747.28;6180641;23;20363;-85
2022/06/23 18:40:52;;;;;;;;;;;;;;;14.13;99.35;98745.06;6180190;23;19912;-85
2022/06/23 18:43:23;;;;;;;;;;;;;;;13.76;97.12;98741.63;6181154;23;19913;-86
2022/06/23 18:45:51;;;;;;;;;;;;;;;13.93;99.37;98737.72;6180977;23;19912;-86
2022/06/23 18:48:22;;;;;;;;;;;;;;;14.18;99.76;98739.41;6181169;23;20239;-86
2022/06/23 18:51:08;;;;;;;;;;;;;;;13.78;97.51;98734.34;6180975;23;19935;-85
2022/06/23 18:53:39;;;;;;;;;;;;;;;14.06;99.36;98743.84;6158824;22;20309;-86
2022/06/23 18:56:09;;;;;;;;;;;;;;;14.22;99.29;98750.72;6181155;23;20008;-88
2022/06/23 18:58:40;;;;;;;;;;;;;;;13.86;98.08;98744.44;6306232;22;20277;-85
2022/06/23 19:01:15;;;;;;;;;;;;;;;14.08;99.40;98754.38;6306569;22;19922;-85
2022/06/23 19:03:43;;;;;;;;;;;;;;;14.20;98.68;98758.81;6306352;22;19946;-85
2022/06/23 19:06:12;;;;;;;;;;;;;;;13.90;98.51;98760.09;6306371;22;19910;-85
2022/06/23 19:08:38;;;;;;;;;;;;;;;14.11;99.33;98765.66;6305858;22;19917;-85
2022/06/23 19:11:11;;;;;;;;;;;;;;;14.07;98.01;98772.19;6306191;22;19911;-85
2022/06/23 19:13:49;;;;;;;;;;;;;;;13.93;98.37;98770.53;6307668;22;20277;-85
2022/06/23 19:16:30;;;;;;;;;;;;;;;14.15;99.17;98777.81;6307663;22;20334;-86
2022/06/23 19:19:33;;;;;;;;;;;;;;;13.77;96.81;98775.28;6307965;22;20299;-85
2022/06/23 19:22:14;;;;;;;;;;;;;;;14.01;99.13;98767.31;6182561;23;20361;-85
2022/06/23 19:24:45;;;;;;;;;;;;;;;14.22;99.11;98769.34;6181513;23;20296;-85
2022/06/23 19:27:31;;;;;;;;;;;;;;;13.84;97.94;98775.69;6258305;22;19994;-85
2022/06/23 19:29:59;;;;;;;;;;;;;;;14.14;99.38;98780.56;6279583;22;19915;-86
2022/06/23 19:32:33;;;;;;;;;;;;;;;14.08;97.71;98783.69;6307773;22;19940;-86
2022/06/23 19:35:00;;;;;;;;;;;;;;;13.97;98.59;98819.91;6306154;22;19968;-85
2022/06/23 19:37:46;;;;;;;;;;;;;;;14.26;99.73;98846.25;6307854;22;19990;-85
2022/06/23 19:40:14;;;;;;;;;;;;;;;13.74;97.10;98845.53;6306357;22;19911;-84
2022/06/23 19:42:39;;;;;;;;;;;;;;;13.91;98.72;98847.03;6305919;22;19915;-84
2022/06/23 19:45:22;;;;;;;;;;;;;;;14.01;98.17;98841.00;6307083;22;20065;-84
2022/06/23 19:47:50;;;;;;;;;;;;;;;13.54;96.90;98854.91;6307403;22;19937;-85
2022/06/23 19:50:34;;;;;;;;;;;;;;;13.81;97.82;98877.91;6307623;22;20018;-85
2022/06/23 19:53:01;;;;;;;;;;;;;;;13.62;94.80;98892.53;6307755;22;19911;-84
2022/06/23 19:55:28;;;;;;;;;;;;;;;13.61;96.49;98893.47;6305216;22;19911;-84
2022/06/23 19:57:54;;;;;;;;;;;;;;;13.83;96.88;98891.94;6289237;22;19924;-85
2022/06/23 20:00:24;;;;;;;;;;;;;;;13.15;93.76;98896.59;6180740;22;19987;-84
2022/06/23 20:02:49;;;;;;;;;;;;;;;13.48;96.29;98900.59;6180707;23;19919;-84
2022/06/23 20:05:35;;;;;;;;;;;;;;;13.70;96.36;98899.94;6180141;23;19916;-84
2022/06/23 20:08:17;;;;;;;;;;;;;;;13.18;94.62;98891.06;6179820;22;19919;-84
2022/06/23 20:10:48;;;;;;;;;;;;;;;13.49;96.63;98896.13;6179568;23;19991;-84
2022/06/23 20:13:17;;;;;;;;;;;;;;;13.15;93.61;98911.72;6180873;23;19923;-84
2022/06/23 20:15:50;;;;;;;;;;;;;;;13.14;95.60;98908.19;6180423;22;20374;-86
2022/06/23 20:18:26;;;;;;;;;;;;;;;13.49;96.63;98904.13;6180727;23;19916;-85
2022/06/23 20:21:03;;;;;;;;;;;;;;;12.83;93.34;98902.25;6180671;23;19939;-87
2022/06/23 20:23:31;;;;;;;;;;;;;;;13.19;96.51;98898.06;6179691;23;19943;-84
2022/06/23 20:25:57;;;;;;;;;;;;;;;13.42;96.66;98903.69;6180469;23;19958;-85
2022/06/23 20:28:40;;;;;;;;;;;;;;;12.78;94.43;98909.69;6180819;22;19916;-85